Time,TemperatureF,DewpointF,PressureIn,WindDirection,WindDirectionDegrees,WindSpeedMPH,WindSpeedGustMPH,Humidity,HourlyPrecipIn,Conditions,Clouds,dailyrainin,SoftwareType,DateUTC
2013-05-17 00:00:00,60.5,46.7,29.56,North,-999,-999.0,-999.0,51,-99.99,,,-99.99,Homeseer,2013-05-17 04:00:00,
2013-05-17 00:01:00,60.5,46.7,29.56,North,-999,-999.0,-999.0,51,-99.99,,,-99.99,Homeseer,2013-05-17 04:01:00,
2013-05-17 00:02:00,60.4,47.0,29.56,North,-999,-999.0,-999.0,52,-99.99,,,-99.99,Homeseer,2013-05-17 04:02:00,
2013-05-17 00:03:00,60.4,46.6,29.56,North,-999,-999.0,-999.0,51,-99.99,,,-99.99,Homeseer,2013-05-17 04:03:00,
2013-05-17 00:08:00,60.2,46.8,29.57,North,-999,-999.0,-999.0,52,-99.99,,,-99.99,Homeseer,2013-05-17 04:08:00,
2013-05-17 00:10:00,60.0,46.6,29.57,North,-999,-999.0,-999.0,52,-99.99,,,-99.99,Homeseer,2013-05-17 04:10:00,
2013-05-17 00:11:00,60.0,46.6,29.57,North,-999,-999.0,-999.0,52,-99.99,,,-99.99,Homeseer,2013-05-17 04:11:00,
2013-05-17 00:16:00,59.8,46.4,29.58,North,-999,-999.0,-999.0,52,-99.99,,,-99.99,Homeseer,2013-05-17 04:16:00,
2013-05-17 00:21:00,59.5,46.5,29.58,North,-999,-999.0,-999.0,53,-99.99,,,-99.99,Homeseer,2013-05-17 04:21:00,
2013-05-17 00:26:00,59.2,46.6,29.59,North,-999,-999.0,-999.0,54,-99.99,,,-99.99,Homeseer,2013-05-17 04:26:00,
2013-05-17 00:31:00,58.9,46.3,29.59,North,-999,-999.0,-999.0,54,-99.99,,,-99.99,Homeseer,2013-05-17 04:31:00,
2013-05-17 00:36:00,58.4,46.9,29.59,North,-999,-999.0,-999.0,57,-99.99,,,-99.99,Homeseer,2013-05-17 04:36:00,
2013-05-17 00:41:00,58.1,46.6,29.59,North,-999,-999.0,-999.0,57,-99.99,,,-99.99,Homeseer,2013-05-17 04:41:00,
2013-05-17 00:46:00,57.7,46.3,29.60,North,-999,-999.0,-999.0,57,-99.99,,,-99.99,Homeseer,2013-05-17 04:46:00,
2013-05-17 00:51:00,57.7,46.3,29.60,North,-999,-999.0,-999.0,57,-99.99,,,-99.99,Homeseer,2013-05-17 04:51:00,
2013-05-17 00:56:00,57.6,45.8,29.60,North,-999,-999.0,-999.0,56,-99.99,,,-99.99,Homeseer,2013-05-17 04:56:00,
2013-05-17 01:01:00,57.2,46.2,29.61,North,-999,-999.0,-999.0,58,-99.99,,,-99.99,Homeseer,2013-05-17 05:01:00,
2013-05-17 01:06:00,57.1,45.7,29.61,North,-999,-999.0,-999.0,57,-99.99,,,-99.99,Homeseer,2013-05-17 05:06:00,
2013-05-17 01:11:00,57.0,45.6,29.60,North,-999,-999.0,-999.0,57,-99.99,,,-99.99,Homeseer,2013-05-17 05:11:00,
2013-05-17 01:16:00,56.8,45.4,29.61,North,-999,-999.0,-999.0,57,-99.99,,,-99.99,Homeseer,2013-05-17 05:16:00,
2013-05-17 01:21:00,56.7,45.7,29.61,North,-999,-999.0,-999.0,58,-99.99,,,-99.99,Homeseer,2013-05-17 05:21:00,
2013-05-17 01:26:00,56.7,45.7,29.61,North,-999,-999.0,-999.0,58,-99.99,,,-99.99,Homeseer,2013-05-17 05:26:00,
2013-05-17 01:31:00,56.6,45.6,29.61,North,-999,-999.0,-999.0,58,-99.99,,,-99.99,Homeseer,2013-05-17 05:31:00,
2013-05-17 01:36:00,56.4,45.4,29.61,North,-999,-999.0,-999.0,58,-99.99,,,-99.99,Homeseer,2013-05-17 05:36:00,
2013-05-17 01:41:00,56.2,45.2,29.61,North,-999,-999.0,-999.0,58,-99.99,,,-99.99,Homeseer,2013-05-17 05:41:00,
2013-05-17 01:46:00,56.0,45.4,29.61,North,-999,-999.0,-999.0,59,-99.99,,,-99.99,Homeseer,2013-05-17 05:46:00,
2013-05-17 01:51:00,55.9,45.3,29.61,North,-999,-999.0,-999.0,59,-99.99,,,-99.99,Homeseer,2013-05-17 05:51:00,
2013-05-17 01:56:00,55.7,45.1,29.61,North,-999,-999.0,-999.0,59,-99.99,,,-99.99,Homeseer,2013-05-17 05:56:00,
2013-05-17 02:01:00,55.4,45.1,29.61,North,-999,-999.0,-999.0,60,-99.99,,,-99.99,Homeseer,2013-05-17 06:01:00,
2013-05-17 02:06:00,55.2,45.0,29.61,North,-999,-999.0,-999.0,60,-99.99,,,-99.99,Homeseer,2013-05-17 06:06:00,
2013-05-17 02:11:00,54.9,45.0,29.61,North,-999,-999.0,-999.0,61,-99.99,,,-99.99,Homeseer,2013-05-17 06:11:00,
2013-05-17 02:16:00,54.8,44.9,29.61,North,-999,-999.0,-999.0,61,-99.99,,,-99.99,Homeseer,2013-05-17 06:16:00,
2013-05-17 02:21:00,54.4,44.5,29.61,North,-999,-999.0,-999.0,61,-99.99,,,-99.99,Homeseer,2013-05-17 06:21:00,
2013-05-17 02:26:00,54.2,45.0,29.61,North,-999,-999.0,-999.0,63,-99.99,,,-99.99,Homeseer,2013-05-17 06:26:00,
2013-05-17 02:31:00,54.0,44.5,29.62,North,-999,-999.0,-999.0,62,-99.99,,,-99.99,Homeseer,2013-05-17 06:31:00,
2013-05-17 02:36:00,53.8,44.6,29.62,North,-999,-999.0,-999.0,63,-99.99,,,-99.99,Homeseer,2013-05-17 06:36:00,
2013-05-17 02:41:00,53.5,44.6,29.62,North,-999,-999.0,-999.0,64,-99.99,,,-99.99,Homeseer,2013-05-17 06:41:00,
2013-05-17 02:46:00,53.1,44.5,29.63,North,-999,-999.0,-999.0,65,-99.99,,,-99.99,Homeseer,2013-05-17 06:46:00,
2013-05-17 02:51:00,52.6,44.1,29.63,North,-999,-999.0,-999.0,65,-99.99,,,-99.99,Homeseer,2013-05-17 06:51:00,
2013-05-17 02:56:00,52.3,44.4,29.64,North,-999,-999.0,-999.0,67,-99.99,,,-99.99,Homeseer,2013-05-17 06:56:00,
2013-05-17 03:01:00,52.2,44.3,29.64,North,-999,-999.0,-999.0,67,-99.99,,,-99.99,Homeseer,2013-05-17 07:01:00,
2013-05-17 03:06:00,52.0,44.4,29.63,North,-999,-999.0,-999.0,68,-99.99,,,-99.99,Homeseer,2013-05-17 07:06:00,
2013-05-17 03:11:00,51.7,44.1,29.64,North,-999,-999.0,-999.0,68,-99.99,,,-99.99,Homeseer,2013-05-17 07:11:00,
2013-05-17 03:16:00,51.6,43.7,29.64,North,-999,-999.0,-999.0,67,-99.99,,,-99.99,Homeseer,2013-05-17 07:16:00,
2013-05-17 03:21:00,51.4,44.1,29.63,North,-999,-999.0,-999.0,69,-99.99,,,-99.99,Homeseer,2013-05-17 07:21:00,
2013-05-17 03:26:00,51.2,44.2,29.63,North,-999,-999.0,-999.0,70,-99.99,,,-99.99,Homeseer,2013-05-17 07:26:00,
2013-05-17 03:31:00,50.9,43.6,29.63,North,-999,-999.0,-999.0,69,-99.99,,,-99.99,Homeseer,2013-05-17 07:31:00,
2013-05-17 03:36:00,50.7,44.0,29.63,North,-999,-999.0,-999.0,71,-99.99,,,-99.99,Homeseer,2013-05-17 07:36:00,
2013-05-17 03:41:00,50.6,43.9,29.64,North,-999,-999.0,-999.0,71,-99.99,,,-99.99,Homeseer,2013-05-17 07:41:00,
2013-05-17 03:46:00,50.4,43.9,29.65,North,-999,-999.0,-999.0,72,-99.99,,,-99.99,Homeseer,2013-05-17 07:46:00,
2013-05-17 03:51:00,50.2,44.0,29.64,North,-999,-999.0,-999.0,73,-99.99,,,-99.99,Homeseer,2013-05-17 07:51:00,
2013-05-17 03:56:00,49.9,43.5,29.65,North,-999,-999.0,-999.0,72,-99.99,,,-99.99,Homeseer,2013-05-17 07:56:00,
2013-05-17 04:01:00,49.7,43.5,29.65,North,-999,-999.0,-999.0,73,-99.99,,,-99.99,Homeseer,2013-05-17 08:01:00,
2013-05-17 04:06:00,49.6,43.7,29.66,North,-999,-999.0,-999.0,74,-99.99,,,-99.99,Homeseer,2013-05-17 08:06:00,
2013-05-17 04:11:00,49.5,43.9,29.66,North,-999,-999.0,-999.0,75,-99.99,,,-99.99,Homeseer,2013-05-17 08:11:00,
2013-05-17 04:16:00,49.4,43.8,29.67,North,-999,-999.0,-999.0,75,-99.99,,,-99.99,Homeseer,2013-05-17 08:16:00,
2013-05-17 04:21:00,49.5,43.6,29.67,North,-999,-999.0,-999.0,74,-99.99,,,-99.99,Homeseer,2013-05-17 08:21:00,
2013-05-17 04:26:00,49.5,43.9,29.67,North,-999,-999.0,-999.0,75,-99.99,,,-99.99,Homeseer,2013-05-17 08:26:00,
2013-05-17 04:31:00,49.4,43.8,29.67,North,-999,-999.0,-999.0,75,-99.99,,,-99.99,Homeseer,2013-05-17 08:31:00,
2013-05-17 04:36:00,49.4,43.8,29.67,North,-999,-999.0,-999.0,75,-99.99,,,-99.99,Homeseer,2013-05-17 08:36:00,
2013-05-17 04:41:00,49.1,44.0,29.68,North,-999,-999.0,-999.0,77,-99.99,,,-99.99,Homeseer,2013-05-17 08:41:00,
2013-05-17 04:46:00,49.2,43.8,29.68,North,-999,-999.0,-999.0,76,-99.99,,,-99.99,Homeseer,2013-05-17 08:46:00,
2013-05-17 04:51:00,49.2,43.8,29.68,North,-999,-999.0,-999.0,76,-99.99,,,-99.99,Homeseer,2013-05-17 08:51:00,
2013-05-17 04:56:00,49.2,44.1,29.68,North,-999,-999.0,-999.0,77,-99.99,,,-99.99,Homeseer,2013-05-17 08:56:00,
2013-05-17 05:01:00,49.4,44.0,29.68,North,-999,-999.0,-999.0,76,-99.99,,,-99.99,Homeseer,2013-05-17 09:01:00,
2013-05-17 05:06:00,49.4,44.3,29.68,North,-999,-999.0,-999.0,77,-99.99,,,-99.99,Homeseer,2013-05-17 09:06:00,
2013-05-17 05:11:00,49.5,43.9,29.69,North,-999,-999.0,-999.0,75,-99.99,,,-99.99,Homeseer,2013-05-17 09:11:00,
2013-05-17 05:16:00,49.5,43.9,29.69,North,-999,-999.0,-999.0,75,-99.99,,,-99.99,Homeseer,2013-05-17 09:16:00,
2013-05-17 05:21:00,49.4,43.5,29.71,North,-999,-999.0,-999.0,74,-99.99,,,-99.99,Homeseer,2013-05-17 09:21:00,
2013-05-17 05:26:00,49.4,43.5,29.71,North,-999,-999.0,-999.0,74,-99.99,,,-99.99,Homeseer,2013-05-17 09:26:00,
2013-05-17 05:31:00,49.2,43.3,29.71,North,-999,-999.0,-999.0,74,-99.99,,,-99.99,Homeseer,2013-05-17 09:31:00,
2013-05-17 05:36:00,49.2,43.6,29.71,North,-999,-999.0,-999.0,75,-99.99,,,-99.99,Homeseer,2013-05-17 09:36:00,
2013-05-17 05:41:00,49.0,43.4,29.71,North,-999,-999.0,-999.0,75,-99.99,,,-99.99,Homeseer,2013-05-17 09:41:00,
2013-05-17 05:46:00,48.9,43.5,29.72,North,-999,-999.0,-999.0,76,-99.99,,,-99.99,Homeseer,2013-05-17 09:46:00,
2013-05-17 05:51:00,48.9,43.5,29.72,North,-999,-999.0,-999.0,76,-99.99,,,-99.99,Homeseer,2013-05-17 09:51:00,
2013-05-17 05:56:00,48.9,43.5,29.73,North,-999,-999.0,-999.0,76,-99.99,,,-99.99,Homeseer,2013-05-17 09:56:00,
2013-05-17 06:01:00,49.0,43.6,29.74,North,-999,-999.0,-999.0,76,-99.99,,,-99.99,Homeseer,2013-05-17 10:01:00,
2013-05-17 06:06:00,49.2,43.8,29.75,North,-999,-999.0,-999.0,76,-99.99,,,-99.99,Homeseer,2013-05-17 10:06:00,
2013-05-17 06:11:00,49.1,43.7,29.75,North,-999,-999.0,-999.0,76,-99.99,,,-99.99,Homeseer,2013-05-17 10:11:00,
2013-05-17 06:16:00,49.2,43.8,29.75,North,-999,-999.0,-999.0,76,-99.99,,,-99.99,Homeseer,2013-05-17 10:16:00,
2013-05-17 06:21:00,49.4,44.0,29.76,North,-999,-999.0,-999.0,76,-99.99,,,-99.99,Homeseer,2013-05-17 10:21:00,
2013-05-17 06:26:00,49.4,44.0,29.76,North,-999,-999.0,-999.0,76,-99.99,,,-99.99,Homeseer,2013-05-17 10:26:00,
2013-05-17 06:31:00,49.5,44.1,29.77,North,-999,-999.0,-999.0,76,-99.99,,,-99.99,Homeseer,2013-05-17 10:31:00,
2013-05-17 06:36:00,49.5,44.1,29.77,North,-999,-999.0,-999.0,76,-99.99,,,-99.99,Homeseer,2013-05-17 10:36:00,
2013-05-17 06:41:00,49.8,44.1,29.77,North,-999,-999.0,-999.0,75,-99.99,,,-99.99,Homeseer,2013-05-17 10:41:00,
2013-05-17 06:46:00,50.0,44.1,29.78,North,-999,-999.0,-999.0,74,-99.99,,,-99.99,Homeseer,2013-05-17 10:46:00,
2013-05-17 06:51:00,50.0,43.6,29.79,North,-999,-999.0,-999.0,72,-99.99,,,-99.99,Homeseer,2013-05-17 10:51:00,
2013-05-17 06:56:00,50.6,44.1,29.79,North,-999,-999.0,-999.0,72,-99.99,,,-99.99,Homeseer,2013-05-17 10:56:00,
2013-05-17 07:01:00,50.7,44.2,29.79,North,-999,-999.0,-999.0,72,-99.99,,,-99.99,Homeseer,2013-05-17 11:01:00,
2013-05-17 07:06:00,51.0,44.2,29.79,North,-999,-999.0,-999.0,71,-99.99,,,-99.99,Homeseer,2013-05-17 11:06:00,
2013-05-17 07:11:00,51.4,44.4,29.80,North,-999,-999.0,-999.0,70,-99.99,,,-99.99,Homeseer,2013-05-17 11:11:00,
2013-05-17 07:16:00,51.6,44.3,29.79,North,-999,-999.0,-999.0,69,-99.99,,,-99.99,Homeseer,2013-05-17 11:16:00,
2013-05-17 07:21:00,51.8,43.9,29.80,North,-999,-999.0,-999.0,67,-99.99,,,-99.99,Homeseer,2013-05-17 11:21:00,
2013-05-17 07:26:00,52.1,43.9,29.81,North,-999,-999.0,-999.0,66,-99.99,,,-99.99,Homeseer,2013-05-17 11:26:00,
2013-05-17 07:31:00,52.2,43.4,29.81,North,-999,-999.0,-999.0,64,-99.99,,,-99.99,Homeseer,2013-05-17 11:31:00,
2013-05-17 07:36:00,52.6,44.4,29.81,North,-999,-999.0,-999.0,66,-99.99,,,-99.99,Homeseer,2013-05-17 11:36:00,
2013-05-17 07:41:00,52.8,44.2,29.81,North,-999,-999.0,-999.0,65,-99.99,,,-99.99,Homeseer,2013-05-17 11:41:00,
2013-05-17 07:46:00,53.0,44.1,29.81,North,-999,-999.0,-999.0,64,-99.99,,,-99.99,Homeseer,2013-05-17 11:46:00,
2013-05-17 07:51:00,53.4,44.5,29.81,North,-999,-999.0,-999.0,64,-99.99,,,-99.99,Homeseer,2013-05-17 11:51:00,
2013-05-17 07:56:00,54.0,45.1,29.82,North,-999,-999.0,-999.0,64,-99.99,,,-99.99,Homeseer,2013-05-17 11:56:00,
2013-05-17 08:01:00,55.1,45.2,29.82,North,-999,-999.0,-999.0,61,-99.99,,,-99.99,Homeseer,2013-05-17 12:01:00,
2013-05-17 08:06:00,56.1,45.8,29.82,North,-999,-999.0,-999.0,60,-99.99,,,-99.99,Homeseer,2013-05-17 12:06:00,
2013-05-17 08:11:00,56.4,46.1,29.82,North,-999,-999.0,-999.0,60,-99.99,,,-99.99,Homeseer,2013-05-17 12:11:00,
2013-05-17 08:16:00,56.9,46.5,29.81,North,-999,-999.0,-999.0,60,-99.99,,,-99.99,Homeseer,2013-05-17 12:16:00,
2013-05-17 08:21:00,56.9,44.5,29.81,North,-999,-999.0,-999.0,54,-99.99,,,-99.99,Homeseer,2013-05-17 12:21:00,
2013-05-17 08:26:00,57.4,46.3,29.82,North,-999,-999.0,-999.0,58,-99.99,,,-99.99,Homeseer,2013-05-17 12:26:00,
2013-05-17 08:31:00,58.2,46.0,29.83,North,-999,-999.0,-999.0,55,-99.99,,,-99.99,Homeseer,2013-05-17 12:31:00,
2013-05-17 08:36:00,59.0,45.7,29.83,North,-999,-999.0,-999.0,52,-99.99,,,-99.99,Homeseer,2013-05-17 12:36:00,
2013-05-17 08:41:00,59.7,47.4,29.83,North,-999,-999.0,-999.0,55,-99.99,,,-99.99,Homeseer,2013-05-17 12:41:00,
2013-05-17 08:46:00,59.6,45.9,29.83,North,-999,-999.0,-999.0,51,-99.99,,,-99.99,Homeseer,2013-05-17 12:46:00,
2013-05-17 08:51:00,59.8,46.0,29.83,North,-999,-999.0,-999.0,51,-99.99,,,-99.99,Homeseer,2013-05-17 12:51:00,
2013-05-17 08:56:00,60.7,47.2,29.83,North,-999,-999.0,-999.0,52,-99.99,,,-99.99,Homeseer,2013-05-17 12:56:00,
2013-05-17 09:01:00,61.4,46.3,29.83,North,-999,-999.0,-999.0,48,-99.99,,,-99.99,Homeseer,2013-05-17 13:01:00,
2013-05-17 09:06:00,60.8,46.6,29.83,North,-999,-999.0,-999.0,50,-99.99,,,-99.99,Homeseer,2013-05-17 13:06:00,
2013-05-17 09:11:00,61.6,48.1,29.83,North,-999,-999.0,-999.0,52,-99.99,,,-99.99,Homeseer,2013-05-17 13:11:00,
2013-05-17 09:16:00,62.2,46.6,29.83,North,-999,-999.0,-999.0,47,-99.99,,,-99.99,Homeseer,2013-05-17 13:16:00,
2013-05-17 09:21:00,63.0,48.9,29.83,North,-999,-999.0,-999.0,51,-99.99,,,-99.99,Homeseer,2013-05-17 13:21:00,
2013-05-17 09:26:00,63.2,48.3,29.83,North,-999,-999.0,-999.0,49,-99.99,,,-99.99,Homeseer,2013-05-17 13:26:00,
2013-05-17 09:31:00,62.6,47.4,29.83,North,-999,-999.0,-999.0,48,-99.99,,,-99.99,Homeseer,2013-05-17 13:31:00,
2013-05-17 09:36:00,62.3,47.5,29.83,North,-999,-999.0,-999.0,49,-99.99,,,-99.99,Homeseer,2013-05-17 13:36:00,
2013-05-17 09:41:00,63.2,49.1,29.83,North,-999,-999.0,-999.0,51,-99.99,,,-99.99,Homeseer,2013-05-17 13:41:00,
2013-05-17 09:46:00,62.5,48.1,29.83,North,-999,-999.0,-999.0,50,-99.99,,,-99.99,Homeseer,2013-05-17 13:46:00,
2013-05-17 09:51:00,62.4,46.4,29.83,North,-999,-999.0,-999.0,46,-99.99,,,-99.99,Homeseer,2013-05-17 13:51:00,
2013-05-17 09:56:00,62.6,47.0,29.83,North,-999,-999.0,-999.0,47,-99.99,,,-99.99,Homeseer,2013-05-17 13:56:00,
2013-05-17 10:01:00,63.0,47.3,29.83,North,-999,-999.0,-999.0,47,-99.99,,,-99.99,Homeseer,2013-05-17 14:01:00,
2013-05-17 10:06:00,63.0,46.9,29.84,North,-999,-999.0,-999.0,46,-99.99,,,-99.99,Homeseer,2013-05-17 14:06:00,
2013-05-17 10:11:00,63.3,46.7,29.84,North,-999,-999.0,-999.0,45,-99.99,,,-99.99,Homeseer,2013-05-17 14:11:00,
2013-05-17 10:16:00,63.1,47.8,29.84,North,-999,-999.0,-999.0,48,-99.99,,,-99.99,Homeseer,2013-05-17 14:16:00,
2013-05-17 10:21:00,62.8,48.0,29.84,North,-999,-999.0,-999.0,49,-99.99,,,-99.99,Homeseer,2013-05-17 14:21:00,
2013-05-17 10:26:00,63.5,47.8,29.84,North,-999,-999.0,-999.0,47,-99.99,,,-99.99,Homeseer,2013-05-17 14:26:00,
2013-05-17 10:31:00,64.3,48.1,29.84,North,-999,-999.0,-999.0,46,-99.99,,,-99.99,Homeseer,2013-05-17 14:31:00,
2013-05-17 10:36:00,64.0,48.2,29.85,North,-999,-999.0,-999.0,47,-99.99,,,-99.99,Homeseer,2013-05-17 14:36:00,
2013-05-17 10:41:00,64.9,47.7,29.86,North,-999,-999.0,-999.0,44,-99.99,,,-99.99,Homeseer,2013-05-17 14:41:00,
2013-05-17 10:46:00,65.8,48.1,29.86,North,-999,-999.0,-999.0,43,-99.99,,,-99.99,Homeseer,2013-05-17 14:46:00,
2013-05-17 10:51:00,65.6,49.2,29.87,North,-999,-999.0,-999.0,46,-99.99,,,-99.99,Homeseer,2013-05-17 14:51:00,
2013-05-17 10:56:00,66.2,48.4,29.87,North,-999,-999.0,-999.0,43,-99.99,,,-99.99,Homeseer,2013-05-17 14:56:00,
2013-05-17 11:01:00,66.7,49.3,29.87,North,-999,-999.0,-999.0,44,-99.99,,,-99.99,Homeseer,2013-05-17 15:01:00,
2013-05-17 11:06:00,67.1,48.3,29.87,North,-999,-999.0,-999.0,41,-99.99,,,-99.99,Homeseer,2013-05-17 15:06:00,
2013-05-17 11:11:00,65.9,49.1,29.87,North,-999,-999.0,-999.0,45,-99.99,,,-99.99,Homeseer,2013-05-17 15:11:00,
2013-05-17 11:16:00,65.6,48.4,29.87,North,-999,-999.0,-999.0,44,-99.99,,,-99.99,Homeseer,2013-05-17 15:16:00,
2013-05-17 11:21:00,65.0,48.7,29.87,North,-999,-999.0,-999.0,46,-99.99,,,-99.99,Homeseer,2013-05-17 15:21:00,
2013-05-17 11:26:00,65.7,49.3,29.87,North,-999,-999.0,-999.0,46,-99.99,,,-99.99,Homeseer,2013-05-17 15:26:00,
2013-05-17 11:31:00,66.5,49.2,29.88,North,-999,-999.0,-999.0,44,-99.99,,,-99.99,Homeseer,2013-05-17 15:31:00,
2013-05-17 11:36:00,67.0,48.7,29.89,North,-999,-999.0,-999.0,42,-99.99,,,-99.99,Homeseer,2013-05-17 15:36:00,
2013-05-17 11:41:00,67.7,49.8,29.88,North,-999,-999.0,-999.0,43,-99.99,,,-99.99,Homeseer,2013-05-17 15:41:00,
2013-05-17 11:46:00,67.7,50.2,29.88,North,-999,-999.0,-999.0,44,-99.99,,,-99.99,Homeseer,2013-05-17 15:46:00,
2013-05-17 11:51:00,67.7,48.3,29.88,North,-999,-999.0,-999.0,40,-99.99,,,-99.99,Homeseer,2013-05-17 15:51:00,
2013-05-17 11:56:00,67.4,49.5,29.88,North,-999,-999.0,-999.0,43,-99.99,,,-99.99,Homeseer,2013-05-17 15:56:00,
2013-05-17 12:01:00,66.8,49.4,29.89,North,-999,-999.0,-999.0,44,-99.99,,,-99.99,Homeseer,2013-05-17 16:01:00,
2013-05-17 12:06:00,66.0,49.2,29.89,North,-999,-999.0,-999.0,45,-99.99,,,-99.99,Homeseer,2013-05-17 16:06:00,
2013-05-17 12:11:00,66.1,49.2,29.88,North,-999,-999.0,-999.0,45,-99.99,,,-99.99,Homeseer,2013-05-17 16:11:00,
2013-05-17 12:16:00,65.4,49.1,29.89,North,-999,-999.0,-999.0,46,-99.99,,,-99.99,Homeseer,2013-05-17 16:16:00,
2013-05-17 12:21:00,65.0,47.8,29.89,North,-999,-999.0,-999.0,44,-99.99,,,-99.99,Homeseer,2013-05-17 16:21:00,
2013-05-17 12:26:00,63.8,46.7,29.89,North,-999,-999.0,-999.0,44,-99.99,,,-99.99,Homeseer,2013-05-17 16:26:00,
2013-05-17 12:31:00,63.1,46.6,29.89,North,-999,-999.0,-999.0,45,-99.99,,,-99.99,Homeseer,2013-05-17 16:31:00,
2013-05-17 12:36:00,63.1,47.4,29.88,North,-999,-999.0,-999.0,47,-99.99,,,-99.99,Homeseer,2013-05-17 16:36:00,
2013-05-17 12:41:00,63.9,47.7,29.89,North,-999,-999.0,-999.0,46,-99.99,,,-99.99,Homeseer,2013-05-17 16:41:00,
2013-05-17 12:46:00,64.0,46.9,29.89,North,-999,-999.0,-999.0,44,-99.99,,,-99.99,Homeseer,2013-05-17 16:46:00,
2013-05-17 12:51:00,63.9,46.8,29.89,North,-999,-999.0,-999.0,44,-99.99,,,-99.99,Homeseer,2013-05-17 16:51:00,
2013-05-17 12:56:00,64.4,49.0,29.89,North,-999,-999.0,-999.0,48,-99.99,,,-99.99,Homeseer,2013-05-17 16:56:00,
2013-05-17 13:01:00,65.7,48.9,29.88,North,-999,-999.0,-999.0,45,-99.99,,,-99.99,Homeseer,2013-05-17 17:01:00,
2013-05-17 13:06:00,66.7,49.3,29.89,North,-999,-999.0,-999.0,44,-99.99,,,-99.99,Homeseer,2013-05-17 17:06:00,
2013-05-17 13:11:00,66.5,49.6,29.88,North,-999,-999.0,-999.0,45,-99.99,,,-99.99,Homeseer,2013-05-17 17:11:00,
2013-05-17 13:16:00,67.4,47.6,29.89,North,-999,-999.0,-999.0,39,-99.99,,,-99.99,Homeseer,2013-05-17 17:16:00,
2013-05-17 13:21:00,67.4,50.0,29.89,North,-999,-999.0,-999.0,44,-99.99,,,-99.99,Homeseer,2013-05-17 17:21:00,
2013-05-17 13:26:00,66.8,48.0,29.89,North,-999,-999.0,-999.0,41,-99.99,,,-99.99,Homeseer,2013-05-17 17:26:00,
2013-05-17 13:31:00,67.6,48.7,29.89,North,-999,-999.0,-999.0,41,-99.99,,,-99.99,Homeseer,2013-05-17 17:31:00,
2013-05-17 13:36:00,68.2,49.3,29.89,North,-999,-999.0,-999.0,41,-99.99,,,-99.99,Homeseer,2013-05-17 17:36:00,
2013-05-17 13:41:00,67.8,48.4,29.89,North,-999,-999.0,-999.0,40,-99.99,,,-99.99,Homeseer,2013-05-17 17:41:00,
2013-05-17 13:46:00,67.8,47.4,29.89,North,-999,-999.0,-999.0,38,-99.99,,,-99.99,Homeseer,2013-05-17 17:46:00,
2013-05-17 13:51:00,66.2,46.5,29.89,North,-999,-999.0,-999.0,39,-99.99,,,-99.99,Homeseer,2013-05-17 17:51:00,
2013-05-17 13:56:00,66.5,45.7,29.89,North,-999,-999.0,-999.0,37,-99.99,,,-99.99,Homeseer,2013-05-17 17:56:00,
2013-05-17 14:01:00,66.8,50.3,29.89,North,-999,-999.0,-999.0,46,-99.99,,,-99.99,Homeseer,2013-05-17 18:01:00,
2013-05-17 14:06:00,67.1,49.7,29.89,North,-999,-999.0,-999.0,44,-99.99,,,-99.99,Homeseer,2013-05-17 18:06:00,
2013-05-17 14:11:00,67.9,48.0,29.89,North,-999,-999.0,-999.0,39,-99.99,,,-99.99,Homeseer,2013-05-17 18:11:00,
2013-05-17 14:16:00,68.6,48.1,29.89,North,-999,-999.0,-999.0,38,-99.99,,,-99.99,Homeseer,2013-05-17 18:16:00,
2013-05-17 14:21:00,68.8,47.7,29.89,North,-999,-999.0,-999.0,37,-99.99,,,-99.99,Homeseer,2013-05-17 18:21:00,
2013-05-17 14:26:00,69.6,47.9,29.89,North,-999,-999.0,-999.0,36,-99.99,,,-99.99,Homeseer,2013-05-17 18:26:00,
2013-05-17 14:31:00,69.4,49.3,29.90,North,-999,-999.0,-999.0,39,-99.99,,,-99.99,Homeseer,2013-05-17 18:31:00,
2013-05-17 14:36:00,68.7,50.2,29.90,North,-999,-999.0,-999.0,42,-99.99,,,-99.99,Homeseer,2013-05-17 18:36:00,
2013-05-17 14:41:00,68.4,47.4,29.89,North,-999,-999.0,-999.0,37,-99.99,,,-99.99,Homeseer,2013-05-17 18:41:00,
2013-05-17 14:46:00,68.3,48.9,29.89,North,-999,-999.0,-999.0,40,-99.99,,,-99.99,Homeseer,2013-05-17 18:46:00,
2013-05-17 14:51:00,69.3,48.7,29.90,North,-999,-999.0,-999.0,38,-99.99,,,-99.99,Homeseer,2013-05-17 18:51:00,
2013-05-17 14:56:00,68.9,48.4,29.90,North,-999,-999.0,-999.0,38,-99.99,,,-99.99,Homeseer,2013-05-17 18:56:00,
2013-05-17 15:01:00,68.4,47.4,29.90,North,-999,-999.0,-999.0,37,-99.99,,,-99.99,Homeseer,2013-05-17 19:01:00,
2013-05-17 15:06:00,67.9,46.4,29.91,North,-999,-999.0,-999.0,36,-99.99,,,-99.99,Homeseer,2013-05-17 19:06:00,
2013-05-17 15:11:00,68.3,47.3,29.90,North,-999,-999.0,-999.0,37,-99.99,,,-99.99,Homeseer,2013-05-17 19:11:00,
2013-05-17 15:16:00,68.2,47.2,29.91,North,-999,-999.0,-999.0,37,-99.99,,,-99.99,Homeseer,2013-05-17 19:16:00,
2013-05-17 15:21:00,67.8,46.3,29.91,North,-999,-999.0,-999.0,36,-99.99,,,-99.99,Homeseer,2013-05-17 19:21:00,
2013-05-17 15:26:00,68.0,47.0,29.91,North,-999,-999.0,-999.0,37,-99.99,,,-99.99,Homeseer,2013-05-17 19:26:00,
2013-05-17 15:31:00,67.5,46.6,29.91,North,-999,-999.0,-999.0,37,-99.99,,,-99.99,Homeseer,2013-05-17 19:31:00,
2013-05-17 15:36:00,67.4,45.4,29.90,North,-999,-999.0,-999.0,35,-99.99,,,-99.99,Homeseer,2013-05-17 19:36:00,
2013-05-17 15:41:00,67.5,45.0,29.90,North,-999,-999.0,-999.0,34,-99.99,,,-99.99,Homeseer,2013-05-17 19:41:00,
2013-05-17 15:46:00,68.6,47.0,29.91,North,-999,-999.0,-999.0,36,-99.99,,,-99.99,Homeseer,2013-05-17 19:46:00,
2013-05-17 15:51:00,69.5,46.7,29.90,North,-999,-999.0,-999.0,34,-99.99,,,-99.99,Homeseer,2013-05-17 19:51:00,
2013-05-17 15:56:00,69.5,47.3,29.91,North,-999,-999.0,-999.0,35,-99.99,,,-99.99,Homeseer,2013-05-17 19:56:00,
2013-05-17 16:01:00,69.4,46.0,29.91,North,-999,-999.0,-999.0,33,-99.99,,,-99.99,Homeseer,2013-05-17 20:01:00,
2013-05-17 16:06:00,69.0,45.7,29.91,North,-999,-999.0,-999.0,33,-99.99,,,-99.99,Homeseer,2013-05-17 20:06:00,
2013-05-17 16:11:00,68.7,45.4,29.91,North,-999,-999.0,-999.0,33,-99.99,,,-99.99,Homeseer,2013-05-17 20:11:00,
2013-05-17 16:16:00,68.7,44.2,29.91,North,-999,-999.0,-999.0,31,-99.99,,,-99.99,Homeseer,2013-05-17 20:16:00,
2013-05-17 16:21:00,68.9,45.6,29.92,North,-999,-999.0,-999.0,33,-99.99,,,-99.99,Homeseer,2013-05-17 20:21:00,
2013-05-17 16:26:00,68.8,44.9,29.92,North,-999,-999.0,-999.0,32,-99.99,,,-99.99,Homeseer,2013-05-17 20:26:00,
2013-05-17 16:31:00,68.8,46.1,29.91,North,-999,-999.0,-999.0,34,-99.99,,,-99.99,Homeseer,2013-05-17 20:31:00,
2013-05-17 16:36:00,69.4,45.4,29.92,North,-999,-999.0,-999.0,32,-99.99,,,-99.99,Homeseer,2013-05-17 20:36:00,
2013-05-17 16:41:00,69.6,44.3,29.93,North,-999,-999.0,-999.0,30,-99.99,,,-99.99,Homeseer,2013-05-17 20:41:00,
2013-05-17 16:46:00,69.3,45.9,29.93,North,-999,-999.0,-999.0,33,-99.99,,,-99.99,Homeseer,2013-05-17 20:46:00,
2013-05-17 16:51:00,68.5,43.4,29.93,North,-999,-999.0,-999.0,30,-99.99,,,-99.99,Homeseer,2013-05-17 20:51:00,
2013-05-17 16:56:00,68.8,44.3,29.93,North,-999,-999.0,-999.0,31,-99.99,,,-99.99,Homeseer,2013-05-17 20:56:00,
2013-05-17 17:01:00,68.5,43.4,29.94,North,-999,-999.0,-999.0,30,-99.99,,,-99.99,Homeseer,2013-05-17 21:01:00,
2013-05-17 17:06:00,68.5,44.0,29.94,North,-999,-999.0,-999.0,31,-99.99,,,-99.99,Homeseer,2013-05-17 21:06:00,
2013-05-17 17:11:00,68.3,44.5,29.94,North,-999,-999.0,-999.0,32,-99.99,,,-99.99,Homeseer,2013-05-17 21:11:00,
2013-05-17 17:16:00,68.2,43.8,29.95,North,-999,-999.0,-999.0,31,-99.99,,,-99.99,Homeseer,2013-05-17 21:16:00,
2013-05-17 17:21:00,68.4,44.6,29.95,North,-999,-999.0,-999.0,32,-99.99,,,-99.99,Homeseer,2013-05-17 21:21:00,
2013-05-17 17:26:00,68.0,44.8,29.95,North,-999,-999.0,-999.0,33,-99.99,,,-99.99,Homeseer,2013-05-17 21:26:00,
2013-05-17 17:31:00,67.8,45.8,29.96,North,-999,-999.0,-999.0,35,-99.99,,,-99.99,Homeseer,2013-05-17 21:31:00,
2013-05-17 17:36:00,67.6,43.9,29.96,North,-999,-999.0,-999.0,32,-99.99,,,-99.99,Homeseer,2013-05-17 21:36:00,
2013-05-17 17:41:00,67.1,44.6,29.96,North,-999,-999.0,-999.0,34,-99.99,,,-99.99,Homeseer,2013-05-17 21:41:00,
2013-05-17 17:46:00,67.1,44.6,29.96,North,-999,-999.0,-999.0,34,-99.99,,,-99.99,Homeseer,2013-05-17 21:46:00,
2013-05-17 17:51:00,66.7,44.8,29.97,North,-999,-999.0,-999.0,35,-99.99,,,-99.99,Homeseer,2013-05-17 21:51:00,
2013-05-17 17:56:00,66.8,44.4,29.96,North,-999,-999.0,-999.0,34,-99.99,,,-99.99,Homeseer,2013-05-17 21:56:00,
2013-05-17 18:01:00,66.8,45.5,29.97,North,-999,-999.0,-999.0,36,-99.99,,,-99.99,Homeseer,2013-05-17 22:01:00,
2013-05-17 18:06:00,66.4,44.0,29.97,North,-999,-999.0,-999.0,34,-99.99,,,-99.99,Homeseer,2013-05-17 22:06:00,
2013-05-17 18:11:00,66.2,43.3,29.97,North,-999,-999.0,-999.0,33,-99.99,,,-99.99,Homeseer,2013-05-17 22:11:00,
2013-05-17 18:16:00,66.1,44.9,29.97,North,-999,-999.0,-999.0,36,-99.99,,,-99.99,Homeseer,2013-05-17 22:16:00,
2013-05-17 18:21:00,66.0,43.7,29.98,North,-999,-999.0,-999.0,34,-99.99,,,-99.99,Homeseer,2013-05-17 22:21:00,
2013-05-17 18:26:00,65.9,44.1,29.98,North,-999,-999.0,-999.0,35,-99.99,,,-99.99,Homeseer,2013-05-17 22:26:00,
2013-05-17 18:31:00,66.0,43.1,29.99,North,-999,-999.0,-999.0,33,-99.99,,,-99.99,Homeseer,2013-05-17 22:31:00,
2013-05-17 18:36:00,65.9,44.1,29.98,North,-999,-999.0,-999.0,35,-99.99,,,-99.99,Homeseer,2013-05-17 22:36:00,
2013-05-17 18:41:00,65.8,43.5,29.99,North,-999,-999.0,-999.0,34,-99.99,,,-99.99,Homeseer,2013-05-17 22:41:00,
2013-05-17 18:46:00,65.9,43.6,29.99,North,-999,-999.0,-999.0,34,-99.99,,,-99.99,Homeseer,2013-05-17 22:46:00,
2013-05-17 18:51:00,65.7,43.4,29.99,North,-999,-999.0,-999.0,34,-99.99,,,-99.99,Homeseer,2013-05-17 22:51:00,
2013-05-17 18:56:00,65.3,43.1,29.99,North,-999,-999.0,-999.0,34,-99.99,,,-99.99,Homeseer,2013-05-17 22:56:00,
2013-05-17 19:01:00,65.0,42.8,30.00,North,-999,-999.0,-999.0,34,-99.99,,,-99.99,Homeseer,2013-05-17 23:01:00,
2013-05-17 19:06:00,64.7,42.6,30.01,North,-999,-999.0,-999.0,34,-99.99,,,-99.99,Homeseer,2013-05-17 23:06:00,
2013-05-17 19:11:00,64.6,43.0,30.01,North,-999,-999.0,-999.0,35,-99.99,,,-99.99,Homeseer,2013-05-17 23:11:00,
2013-05-17 19:16:00,64.4,42.8,30.01,North,-999,-999.0,-999.0,35,-99.99,,,-99.99,Homeseer,2013-05-17 23:16:00,
2013-05-17 19:21:00,64.3,42.8,30.01,North,-999,-999.0,-999.0,35,-99.99,,,-99.99,Homeseer,2013-05-17 23:21:00,
2013-05-17 19:26:00,64.2,43.2,30.01,North,-999,-999.0,-999.0,36,-99.99,,,-99.99,Homeseer,2013-05-17 23:26:00,
2013-05-17 19:31:00,64.1,43.1,30.02,North,-999,-999.0,-999.0,36,-99.99,,,-99.99,Homeseer,2013-05-17 23:31:00,
2013-05-17 19:36:00,64.0,43.0,30.02,North,-999,-999.0,-999.0,36,-99.99,,,-99.99,Homeseer,2013-05-17 23:36:00,
2013-05-17 19:41:00,63.8,43.4,30.02,North,-999,-999.0,-999.0,37,-99.99,,,-99.99,Homeseer,2013-05-17 23:41:00,
2013-05-17 19:46:00,63.6,44.2,30.02,North,-999,-999.0,-999.0,39,-99.99,,,-99.99,Homeseer,2013-05-17 23:46:00,
2013-05-17 19:51:00,63.2,43.4,30.03,North,-999,-999.0,-999.0,38,-99.99,,,-99.99,Homeseer,2013-05-17 23:51:00,
2013-05-17 19:56:00,62.5,42.8,30.03,North,-999,-999.0,-999.0,38,-99.99,,,-99.99,Homeseer,2013-05-17 23:56:00,
2013-05-17 20:01:00,62.2,43.5,30.04,North,-999,-999.0,-999.0,40,-99.99,,,-99.99,Homeseer,2013-05-18 00:01:00,
2013-05-17 20:06:00,61.6,43.4,30.05,North,-999,-999.0,-999.0,41,-99.99,,,-99.99,Homeseer,2013-05-18 00:06:00,
2013-05-17 20:11:00,61.1,43.4,30.05,North,-999,-999.0,-999.0,42,-99.99,,,-99.99,Homeseer,2013-05-18 00:11:00,
2013-05-17 20:16:00,60.5,42.9,30.05,North,-999,-999.0,-999.0,42,-99.99,,,-99.99,Homeseer,2013-05-18 00:16:00,
2013-05-17 20:21:00,59.9,43.7,30.05,North,-999,-999.0,-999.0,45,-99.99,,,-99.99,Homeseer,2013-05-18 00:21:00,
2013-05-17 20:26:00,59.5,43.3,30.06,North,-999,-999.0,-999.0,45,-99.99,,,-99.99,Homeseer,2013-05-18 00:26:00,
2013-05-17 20:31:00,58.9,42.8,30.06,North,-999,-999.0,-999.0,45,-99.99,,,-99.99,Homeseer,2013-05-18 00:31:00,
2013-05-17 20:36:00,58.2,42.6,30.07,North,-999,-999.0,-999.0,46,-99.99,,,-99.99,Homeseer,2013-05-18 00:36:00,
2013-05-17 20:41:00,57.5,43.2,30.07,North,-999,-999.0,-999.0,49,-99.99,,,-99.99,Homeseer,2013-05-18 00:41:00,
2013-05-17 20:46:00,57.1,42.4,30.07,North,-999,-999.0,-999.0,48,-99.99,,,-99.99,Homeseer,2013-05-18 00:46:00,
2013-05-17 20:51:00,56.4,42.2,30.07,North,-999,-999.0,-999.0,49,-99.99,,,-99.99,Homeseer,2013-05-18 00:51:00,
2013-05-17 20:56:00,55.8,42.0,30.08,North,-999,-999.0,-999.0,50,-99.99,,,-99.99,Homeseer,2013-05-18 00:56:00,
2013-05-17 21:01:00,55.0,42.4,30.08,North,-999,-999.0,-999.0,53,-99.99,,,-99.99,Homeseer,2013-05-18 01:01:00,
2013-05-17 21:06:00,54.5,42.3,30.09,North,-999,-999.0,-999.0,54,-99.99,,,-99.99,Homeseer,2013-05-18 01:06:00,
2013-05-17 21:11:00,53.9,42.1,30.09,North,-999,-999.0,-999.0,55,-99.99,,,-99.99,Homeseer,2013-05-18 01:11:00,
2013-05-17 21:16:00,53.3,42.5,30.09,North,-999,-999.0,-999.0,58,-99.99,,,-99.99,Homeseer,2013-05-18 01:16:00,
2013-05-17 21:21:00,52.8,42.4,30.10,North,-999,-999.0,-999.0,59,-99.99,,,-99.99,Homeseer,2013-05-18 01:21:00,
2013-05-17 21:26:00,52.4,42.3,30.10,North,-999,-999.0,-999.0,60,-99.99,,,-99.99,Homeseer,2013-05-18 01:26:00,
2013-05-17 21:31:00,52.1,42.4,30.11,North,-999,-999.0,-999.0,61,-99.99,,,-99.99,Homeseer,2013-05-18 01:31:00,
2013-05-17 21:36:00,51.7,42.3,30.10,North,-999,-999.0,-999.0,62,-99.99,,,-99.99,Homeseer,2013-05-18 01:36:00,
2013-05-17 21:41:00,51.4,42.0,30.11,North,-999,-999.0,-999.0,62,-99.99,,,-99.99,Homeseer,2013-05-18 01:41:00,
2013-05-17 21:46:00,51.2,41.8,30.11,North,-999,-999.0,-999.0,62,-99.99,,,-99.99,Homeseer,2013-05-18 01:46:00,
2013-05-17 21:51:00,50.9,41.6,30.11,North,-999,-999.0,-999.0,62,-99.99,,,-99.99,Homeseer,2013-05-18 01:51:00,
2013-05-17 21:56:00,50.7,41.7,30.12,North,-999,-999.0,-999.0,63,-99.99,,,-99.99,Homeseer,2013-05-18 01:56:00,
2013-05-17 22:01:00,50.5,41.8,30.12,North,-999,-999.0,-999.0,64,-99.99,,,-99.99,Homeseer,2013-05-18 02:01:00,
2013-05-17 22:06:00,50.4,42.0,30.13,North,-999,-999.0,-999.0,65,-99.99,,,-99.99,Homeseer,2013-05-18 02:06:00,
2013-05-17 22:11:00,50.2,42.1,30.13,North,-999,-999.0,-999.0,66,-99.99,,,-99.99,Homeseer,2013-05-18 02:11:00,
2013-05-17 22:16:00,50.0,42.5,30.13,North,-999,-999.0,-999.0,68,-99.99,,,-99.99,Homeseer,2013-05-18 02:16:00,
2013-05-17 22:21:00,49.8,42.3,30.13,North,-999,-999.0,-999.0,68,-99.99,,,-99.99,Homeseer,2013-05-18 02:21:00,
2013-05-17 22:26:00,49.7,42.2,30.13,North,-999,-999.0,-999.0,68,-99.99,,,-99.99,Homeseer,2013-05-18 02:26:00,
2013-05-17 22:31:00,49.7,42.5,30.13,North,-999,-999.0,-999.0,69,-99.99,,,-99.99,Homeseer,2013-05-18 02:31:00,
2013-05-17 22:36:00,49.6,42.1,30.13,North,-999,-999.0,-999.0,68,-99.99,,,-99.99,Homeseer,2013-05-18 02:36:00,
2013-05-17 22:41:00,49.4,42.2,30.13,North,-999,-999.0,-999.0,69,-99.99,,,-99.99,Homeseer,2013-05-18 02:41:00,
2013-05-17 22:46:00,49.2,42.3,30.13,North,-999,-999.0,-999.0,70,-99.99,,,-99.99,Homeseer,2013-05-18 02:46:00,
2013-05-17 22:51:00,49.1,42.2,30.13,North,-999,-999.0,-999.0,70,-99.99,,,-99.99,Homeseer,2013-05-18 02:51:00,
2013-05-17 22:56:00,48.8,41.9,30.13,North,-999,-999.0,-999.0,70,-99.99,,,-99.99,Homeseer,2013-05-18 02:56:00,
2013-05-17 23:01:00,48.6,42.0,30.14,North,-999,-999.0,-999.0,71,-99.99,,,-99.99,Homeseer,2013-05-18 03:01:00,
2013-05-17 23:06:00,48.5,41.6,30.13,North,-999,-999.0,-999.0,70,-99.99,,,-99.99,Homeseer,2013-05-18 03:06:00,
2013-05-17 23:11:00,48.2,41.3,30.14,North,-999,-999.0,-999.0,70,-99.99,,,-99.99,Homeseer,2013-05-18 03:11:00,
2013-05-17 23:16:00,47.9,41.5,30.14,North,-999,-999.0,-999.0,72,-99.99,,,-99.99,Homeseer,2013-05-18 03:16:00,
2013-05-17 23:21:00,47.8,41.5,30.14,North,-999,-999.0,-999.0,72,-99.99,,,-99.99,Homeseer,2013-05-18 03:21:00,
2013-05-17 23:26:00,47.6,41.3,30.14,North,-999,-999.0,-999.0,72,-99.99,,,-99.99,Homeseer,2013-05-18 03:26:00,
2013-05-17 23:31:00,47.4,40.8,30.15,North,-999,-999.0,-999.0,71,-99.99,,,-99.99,Homeseer,2013-05-18 03:31:00,
2013-05-17 23:36:00,47.1,41.0,30.15,North,-999,-999.0,-999.0,73,-99.99,,,-99.99,Homeseer,2013-05-18 03:36:00,
2013-05-17 23:41:00,47.0,41.2,30.14,North,-999,-999.0,-999.0,74,-99.99,,,-99.99,Homeseer,2013-05-18 03:41:00,
2013-05-17 23:46:00,46.9,41.1,30.15,North,-999,-999.0,-999.0,74,-99.99,,,-99.99,Homeseer,2013-05-18 03:46:00,
2013-05-17 23:51:00,46.9,41.4,30.15,North,-999,-999.0,-999.0,75,-99.99,,,-99.99,Homeseer,2013-05-18 03:51:00,
2013-05-17 23:56:00,46.8,41.3,30.16,North,-999,-999.0,-999.0,75,-99.99,,,-99.99,Homeseer,2013-05-18 03:56:00,